sensor_id;sensor_type;location;lat;lon;timestamp;P1;durP1;ratioP1;P2;durP2;ratioP2
8260;SDS011;64115;50.170;8.242;2023-02-26T00:00:29;3.50;;;1.60;;
8260;SDS011;64115;50.170;8.242;2023-02-26T00:02:56;3.17;;;1.73;;
8260;SDS011;64115;50.170;8.242;2023-02-26T00:05:23;2.30;;;1.60;;
8260;SDS011;64115;50.170;8.242;2023-02-26T00:07:50;3.63;;;1.40;;
8260;SDS011;64115;50.170;8.242;2023-02-26T00:10:17;2.43;;;1.20;;
8260;SDS011;64115;50.170;8.242;2023-02-26T00:12:45;1.50;;;1.40;;
8260;SDS011;64115;50.170;8.242;2023-02-26T00:15:14;2.17;;;1.47;;
8260;SDS011;64115;50.170;8.242;2023-02-26T00:17:44;1.20;;;1.10;;
8260;SDS011;64115;50.170;8.242;2023-02-26T00:20:18;1.87;;;1.47;;
8260;SDS011;64115;50.170;8.242;2023-02-26T00:22:45;2.03;;;1.67;;
8260;SDS011;64115;50.170;8.242;2023-02-26T00:25:12;2.50;;;1.60;;
8260;SDS011;64115;50.170;8.242;2023-02-26T00:27:40;4.10;;;1.80;;
8260;SDS011;64115;50.170;8.242;2023-02-26T00:30:08;1.50;;;1.40;;
8260;SDS011;64115;50.170;8.242;2023-02-26T00:32:38;1.57;;;1.20;;
8260;SDS011;64115;50.170;8.242;2023-02-26T00:35:06;2.40;;;1.40;;
8260;SDS011;64115;50.170;8.242;2023-02-26T00:37:41;4.30;;;1.50;;
8260;SDS011;64115;50.170;8.242;2023-02-26T00:40:35;2.53;;;1.70;;
8260;SDS011;64115;50.170;8.242;2023-02-26T00:43:06;3.10;;;1.80;;
8260;SDS011;64115;50.170;8.242;2023-02-26T00:45:36;2.27;;;1.43;;
8260;SDS011;64115;50.170;8.242;2023-02-26T00:48:14;2.47;;;1.50;;
8260;SDS011;64115;50.170;8.242;2023-02-26T00:50:57;2.87;;;1.53;;
8260;SDS011;64115;50.170;8.242;2023-02-26T00:53:28;1.50;;;1.40;;
8260;SDS011;64115;50.170;8.242;2023-02-26T00:55:59;3.63;;;1.77;;
8260;SDS011;64115;50.170;8.242;2023-02-26T00:58:26;1.63;;;1.50;;
8260;SDS011;64115;50.170;8.242;2023-02-26T01:00:53;4.47;;;1.70;;
8260;SDS011;64115;50.170;8.242;2023-02-26T01:03:22;3.43;;;1.80;;
8260;SDS011;64115;50.170;8.242;2023-02-26T01:05:49;1.87;;;1.77;;
8260;SDS011;64115;50.170;8.242;2023-02-26T01:08:18;3.77;;;1.70;;
8260;SDS011;64115;50.170;8.242;2023-02-26T01:10:49;2.53;;;1.50;;
8260;SDS011;64115;50.170;8.242;2023-02-26T01:13:16;2.87;;;1.60;;
8260;SDS011;64115;50.170;8.242;2023-02-26T01:15:46;3.73;;;1.60;;
8260;SDS011;64115;50.170;8.242;2023-02-26T01:18:19;4.00;;;1.63;;
8260;SDS011;64115;50.170;8.242;2023-02-26T01:20:52;4.10;;;1.80;;
8260;SDS011;64115;50.170;8.242;2023-02-26T01:23:23;2.10;;;1.30;;
8260;SDS011;64115;50.170;8.242;2023-02-26T01:25:52;5.20;;;2.03;;
8260;SDS011;64115;50.170;8.242;2023-02-26T01:28:23;2.23;;;1.50;;
8260;SDS011;64115;50.170;8.242;2023-02-26T01:30:52;2.10;;;1.63;;
8260;SDS011;64115;50.170;8.242;2023-02-26T01:33:26;5.13;;;1.80;;
8260;SDS011;64115;50.170;8.242;2023-02-26T01:36:00;3.17;;;1.90;;
8260;SDS011;64115;50.170;8.242;2023-02-26T01:38:35;1.97;;;1.53;;
8260;SDS011;64115;50.170;8.242;2023-02-26T01:41:15;1.97;;;1.60;;
8260;SDS011;64115;50.170;8.242;2023-02-26T01:43:52;4.07;;;1.87;;
8260;SDS011;64115;50.170;8.242;2023-02-26T01:46:30;3.80;;;1.90;;
8260;SDS011;64115;50.170;8.242;2023-02-26T01:49:03;3.10;;;1.63;;
8260;SDS011;64115;50.170;8.242;2023-02-26T01:51:44;3.07;;;1.60;;
8260;SDS011;64115;50.170;8.242;2023-02-26T01:54:15;3.00;;;1.53;;
8260;SDS011;64115;50.170;8.242;2023-02-26T01:56:44;2.10;;;1.77;;
8260;SDS011;64115;50.170;8.242;2023-02-26T01:59:14;5.47;;;2.07;;
8260;SDS011;64115;50.170;8.242;2023-02-26T02:01:48;3.87;;;1.77;;
8260;SDS011;64115;50.170;8.242;2023-02-26T02:04:18;6.47;;;1.67;;
8260;SDS011;64115;50.170;8.242;2023-02-26T02:06:46;3.43;;;1.70;;
8260;SDS011;64115;50.170;8.242;2023-02-26T02:09:13;2.50;;;1.70;;
8260;SDS011;64115;50.170;8.242;2023-02-26T02:11:44;3.53;;;1.67;;
8260;SDS011;64115;50.170;8.242;2023-02-26T02:14:23;2.43;;;1.67;;
8260;SDS011;64115;50.170;8.242;2023-02-26T02:16:57;3.73;;;1.73;;
8260;SDS011;64115;50.170;8.242;2023-02-26T02:19:47;3.47;;;1.60;;
8260;SDS011;64115;50.170;8.242;2023-02-26T02:25:35;3.83;;;2.17;;
8260;SDS011;64115;50.170;8.242;2023-02-26T02:28:17;2.33;;;1.77;;
8260;SDS011;64115;50.170;8.242;2023-02-26T02:30:56;4.30;;;2.23;;
8260;SDS011;64115;50.170;8.242;2023-02-26T02:33:31;3.77;;;2.00;;
8260;SDS011;64115;50.170;8.242;2023-02-26T02:36:03;4.60;;;2.07;;
8260;SDS011;64115;50.170;8.242;2023-02-26T02:38:33;2.53;;;1.90;;
8260;SDS011;64115;50.170;8.242;2023-02-26T02:41:05;3.40;;;2.37;;
8260;SDS011;64115;50.170;8.242;2023-02-26T02:43:37;2.93;;;2.30;;
8260;SDS011;64115;50.170;8.242;2023-02-26T02:46:08;3.53;;;3.10;;
8260;SDS011;64115;50.170;8.242;2023-02-26T02:48:39;5.03;;;2.53;;
8260;SDS011;64115;50.170;8.242;2023-02-26T02:51:11;3.23;;;2.97;;
8260;SDS011;64115;50.170;8.242;2023-02-26T02:53:42;4.50;;;2.67;;
8260;SDS011;64115;50.170;8.242;2023-02-26T02:56:15;3.70;;;2.63;;
8260;SDS011;64115;50.170;8.242;2023-02-26T02:58:49;6.00;;;3.03;;
8260;SDS011;64115;50.170;8.242;2023-02-26T03:01:21;4.50;;;2.57;;
8260;SDS011;64115;50.170;8.242;2023-02-26T03:03:53;2.97;;;2.67;;
8260;SDS011;64115;50.170;8.242;2023-02-26T03:06:23;5.37;;;2.83;;
8260;SDS011;64115;50.170;8.242;2023-02-26T03:08:50;4.27;;;2.80;;
8260;SDS011;64115;50.170;8.242;2023-02-26T03:11:18;5.30;;;3.10;;
8260;SDS011;64115;50.170;8.242;2023-02-26T03:13:45;3.50;;;2.50;;
8260;SDS011;64115;50.170;8.242;2023-02-26T03:16:18;5.93;;;3.00;;
8260;SDS011;64115;50.170;8.242;2023-02-26T03:18:59;4.80;;;2.77;;
8260;SDS011;64115;50.170;8.242;2023-02-26T03:21:35;3.87;;;2.70;;
8260;SDS011;64115;50.170;8.242;2023-02-26T03:24:11;2.47;;;2.27;;
8260;SDS011;64115;50.170;8.242;2023-02-26T03:26:45;5.00;;;2.70;;
8260;SDS011;64115;50.170;8.242;2023-02-26T03:29:18;4.77;;;3.13;;
8260;SDS011;64115;50.170;8.242;2023-02-26T03:31:54;3.00;;;2.70;;
8260;SDS011;64115;50.170;8.242;2023-02-26T03:34:25;4.80;;;2.83;;
8260;SDS011;64115;50.170;8.242;2023-02-26T03:36:56;4.47;;;2.87;;
8260;SDS011;64115;50.170;8.242;2023-02-26T03:39:28;5.50;;;2.63;;
8260;SDS011;64115;50.170;8.242;2023-02-26T03:42:00;2.93;;;2.63;;
8260;SDS011;64115;50.170;8.242;2023-02-26T03:44:32;4.43;;;2.33;;
8260;SDS011;64115;50.170;8.242;2023-02-26T03:47:05;5.17;;;2.97;;
8260;SDS011;64115;50.170;8.242;2023-02-26T03:49:34;6.40;;;2.27;;
8260;SDS011;64115;50.170;8.242;2023-02-26T03:52:04;2.67;;;2.43;;
8260;SDS011;64115;50.170;8.242;2023-02-26T03:54:33;3.07;;;2.50;;
8260;SDS011;64115;50.170;8.242;2023-02-26T03:57:04;2.97;;;2.70;;
8260;SDS011;64115;50.170;8.242;2023-02-26T03:59:31;4.30;;;2.70;;
8260;SDS011;64115;50.170;8.242;2023-02-26T04:02:01;3.53;;;2.60;;
8260;SDS011;64115;50.170;8.242;2023-02-26T04:04:33;3.23;;;2.17;;
8260;SDS011;64115;50.170;8.242;2023-02-26T04:07:06;5.17;;;3.13;;
8260;SDS011;64115;50.170;8.242;2023-02-26T04:09:34;3.30;;;2.70;;
8260;SDS011;64115;50.170;8.242;2023-02-26T04:12:01;5.10;;;2.70;;
8260;SDS011;64115;50.170;8.242;2023-02-26T04:14:29;5.97;;;2.97;;
8260;SDS011;64115;50.170;8.242;2023-02-26T04:16:55;2.87;;;2.40;;
8260;SDS011;64115;50.170;8.242;2023-02-26T04:19:24;7.43;;;2.50;;
8260;SDS011;64115;50.170;8.242;2023-02-26T04:21:51;6.20;;;2.63;;
8260;SDS011;64115;50.170;8.242;2023-02-26T04:24:18;3.10;;;2.40;;
8260;SDS011;64115;50.170;8.242;2023-02-26T04:26:45;4.23;;;2.43;;
8260;SDS011;64115;50.170;8.242;2023-02-26T04:29:12;3.03;;;2.70;;
8260;SDS011;64115;50.170;8.242;2023-02-26T04:31:39;3.43;;;2.47;;
8260;SDS011;64115;50.170;8.242;2023-02-26T04:34:06;4.40;;;2.33;;
8260;SDS011;64115;50.170;8.242;2023-02-26T04:36:34;2.80;;;2.23;;
8260;SDS011;64115;50.170;8.242;2023-02-26T04:39:01;3.70;;;2.30;;
8260;SDS011;64115;50.170;8.242;2023-02-26T04:41:28;4.77;;;2.20;;
8260;SDS011;64115;50.170;8.242;2023-02-26T04:43:55;2.30;;;1.87;;
8260;SDS011;64115;50.170;8.242;2023-02-26T04:46:22;4.87;;;1.93;;
8260;SDS011;64115;50.170;8.242;2023-02-26T04:48:49;2.47;;;1.80;;
8260;SDS011;64115;50.170;8.242;2023-02-26T04:51:16;5.80;;;2.00;;
8260;SDS011;64115;50.170;8.242;2023-02-26T04:53:44;2.67;;;1.80;;
8260;SDS011;64115;50.170;8.242;2023-02-26T04:56:11;4.73;;;2.00;;
8260;SDS011;64115;50.170;8.242;2023-02-26T04:58:38;3.03;;;1.70;;
8260;SDS011;64115;50.170;8.242;2023-02-26T05:01:05;2.00;;;1.80;;
8260;SDS011;64115;50.170;8.242;2023-02-26T05:03:32;4.10;;;1.93;;
8260;SDS011;64115;50.170;8.242;2023-02-26T05:05:59;2.57;;;1.87;;
8260;SDS011;64115;50.170;8.242;2023-02-26T05:08:26;3.80;;;1.50;;
8260;SDS011;64115;50.170;8.242;2023-02-26T05:10:54;2.13;;;1.80;;
8260;SDS011;64115;50.170;8.242;2023-02-26T05:13:21;2.40;;;1.97;;
8260;SDS011;64115;50.170;8.242;2023-02-26T05:15:48;1.70;;;1.60;;
8260;SDS011;64115;50.170;8.242;2023-02-26T05:18:15;4.27;;;1.70;;
8260;SDS011;64115;50.170;8.242;2023-02-26T05:20:42;3.97;;;1.63;;
8260;SDS011;64115;50.170;8.242;2023-02-26T05:23:09;2.80;;;1.80;;
8260;SDS011;64115;50.170;8.242;2023-02-26T05:25:36;3.60;;;1.60;;
8260;SDS011;64115;50.170;8.242;2023-02-26T05:28:05;2.83;;;1.80;;
8260;SDS011;64115;50.170;8.242;2023-02-26T05:30:32;1.53;;;1.43;;
8260;SDS011;64115;50.170;8.242;2023-02-26T05:32:59;1.63;;;1.53;;
8260;SDS011;64115;50.170;8.242;2023-02-26T05:35:26;2.50;;;2.30;;
8260;SDS011;64115;50.170;8.242;2023-02-26T05:37:53;2.13;;;1.60;;
8260;SDS011;64115;50.170;8.242;2023-02-26T05:40:20;3.33;;;1.57;;
8260;SDS011;64115;50.170;8.242;2023-02-26T05:42:47;4.27;;;1.47;;
8260;SDS011;64115;50.170;8.242;2023-02-26T05:45:17;2.60;;;1.50;;
8260;SDS011;64115;50.170;8.242;2023-02-26T05:47:44;5.50;;;1.70;;
8260;SDS011;64115;50.170;8.242;2023-02-26T05:50:11;3.47;;;1.33;;
8260;SDS011;64115;50.170;8.242;2023-02-26T05:52:38;2.97;;;1.37;;
8260;SDS011;64115;50.170;8.242;2023-02-26T05:55:06;1.63;;;1.50;;
8260;SDS011;64115;50.170;8.242;2023-02-26T05:57:34;2.37;;;1.47;;
8260;SDS011;64115;50.170;8.242;2023-02-26T06:00:01;2.23;;;1.53;;
8260;SDS011;64115;50.170;8.242;2023-02-26T06:02:31;4.63;;;1.87;;
8260;SDS011;64115;50.170;8.242;2023-02-26T06:04:58;2.50;;;1.80;;
8260;SDS011;64115;50.170;8.242;2023-02-26T06:07:25;1.50;;;1.40;;
8260;SDS011;64115;50.170;8.242;2023-02-26T06:09:52;2.37;;;1.13;;
8260;SDS011;64115;50.170;8.242;2023-02-26T06:12:19;1.87;;;1.50;;
8260;SDS011;64115;50.170;8.242;2023-02-26T06:14:47;1.47;;;1.37;;
8260;SDS011;64115;50.170;8.242;2023-02-26T06:17:14;2.50;;;1.40;;
8260;SDS011;64115;50.170;8.242;2023-02-26T06:19:42;3.57;;;1.37;;
8260;SDS011;64115;50.170;8.242;2023-02-26T06:22:09;2.13;;;1.30;;
8260;SDS011;64115;50.170;8.242;2023-02-26T06:24:36;1.90;;;1.50;;
8260;SDS011;64115;50.170;8.242;2023-02-26T06:27:03;1.57;;;1.20;;
8260;SDS011;64115;50.170;8.242;2023-02-26T06:29:31;3.87;;;1.37;;
8260;SDS011;64115;50.170;8.242;2023-02-26T06:31:58;3.00;;;1.70;;
8260;SDS011;64115;50.170;8.242;2023-02-26T06:34:25;1.83;;;1.60;;
8260;SDS011;64115;50.170;8.242;2023-02-26T06:36:54;3.97;;;1.70;;
8260;SDS011;64115;50.170;8.242;2023-02-26T06:39:21;3.53;;;1.53;;
8260;SDS011;64115;50.170;8.242;2023-02-26T06:41:48;3.33;;;1.57;;
8260;SDS011;64115;50.170;8.242;2023-02-26T06:44:15;1.53;;;1.33;;
8260;SDS011;64115;50.170;8.242;2023-02-26T06:46:42;1.97;;;1.30;;
8260;SDS011;64115;50.170;8.242;2023-02-26T06:49:09;1.47;;;1.20;;
8260;SDS011;64115;50.170;8.242;2023-02-26T06:51:36;2.00;;;1.57;;
8260;SDS011;64115;50.170;8.242;2023-02-26T06:54:05;1.50;;;1.40;;
8260;SDS011;64115;50.170;8.242;2023-02-26T06:56:32;2.50;;;1.60;;
8260;SDS011;64115;50.170;8.242;2023-02-26T06:58:59;2.37;;;1.60;;
8260;SDS011;64115;50.170;8.242;2023-02-26T07:01:26;2.10;;;1.33;;
8260;SDS011;64115;50.170;8.242;2023-02-26T07:03:53;1.60;;;1.50;;
8260;SDS011;64115;50.170;8.242;2023-02-26T07:06:20;3.10;;;1.27;;
8260;SDS011;64115;50.170;8.242;2023-02-26T07:08:47;3.07;;;1.50;;
8260;SDS011;64115;50.170;8.242;2023-02-26T07:11:15;3.30;;;1.60;;
8260;SDS011;64115;50.170;8.242;2023-02-26T07:13:42;2.87;;;1.10;;
8260;SDS011;64115;50.170;8.242;2023-02-26T07:16:09;2.27;;;1.50;;
8260;SDS011;64115;50.170;8.242;2023-02-26T07:18:36;2.30;;;1.57;;
8260;SDS011;64115;50.170;8.242;2023-02-26T07:21:03;4.87;;;1.80;;
8260;SDS011;64115;50.170;8.242;2023-02-26T07:23:31;2.23;;;1.60;;
8260;SDS011;64115;50.170;8.242;2023-02-26T07:25:58;2.07;;;1.83;;
8260;SDS011;64115;50.170;8.242;2023-02-26T07:28:26;3.53;;;1.30;;
8260;SDS011;64115;50.170;8.242;2023-02-26T07:30:53;1.80;;;1.70;;
8260;SDS011;64115;50.170;8.242;2023-02-26T07:33:20;2.13;;;1.90;;
8260;SDS011;64115;50.170;8.242;2023-02-26T07:35:49;2.17;;;1.63;;
8260;SDS011;64115;50.170;8.242;2023-02-26T07:38:16;3.03;;;1.60;;
8260;SDS011;64115;50.170;8.242;2023-02-26T07:40:43;1.70;;;1.60;;
8260;SDS011;64115;50.170;8.242;2023-02-26T07:43:10;2.00;;;1.80;;
8260;SDS011;64115;50.170;8.242;2023-02-26T07:45:39;1.73;;;1.60;;
8260;SDS011;64115;50.170;8.242;2023-02-26T07:48:06;1.60;;;1.30;;
8260;SDS011;64115;50.170;8.242;2023-02-26T07:50:33;3.93;;;1.87;;
8260;SDS011;64115;50.170;8.242;2023-02-26T07:53:00;2.60;;;1.57;;
8260;SDS011;64115;50.170;8.242;2023-02-26T07:55:27;1.80;;;1.70;;
8260;SDS011;64115;50.170;8.242;2023-02-26T07:57:54;1.90;;;1.60;;
8260;SDS011;64115;50.170;8.242;2023-02-26T08:00:21;3.87;;;1.97;;
8260;SDS011;64115;50.170;8.242;2023-02-26T08:02:50;2.43;;;1.93;;
8260;SDS011;64115;50.170;8.242;2023-02-26T08:05:17;8.07;;;3.60;;
8260;SDS011;64115;50.170;8.242;2023-02-26T08:07:44;2.03;;;1.93;;
8260;SDS011;64115;50.170;8.242;2023-02-26T08:10:11;2.97;;;1.60;;
8260;SDS011;64115;50.170;8.242;2023-02-26T08:12:39;2.40;;;2.00;;
8260;SDS011;64115;50.170;8.242;2023-02-26T08:15:07;2.90;;;1.70;;
8260;SDS011;64115;50.170;8.242;2023-02-26T08:17:36;3.13;;;2.07;;
8260;SDS011;64115;50.170;8.242;2023-02-26T08:20:05;2.70;;;1.80;;
8260;SDS011;64115;50.170;8.242;2023-02-26T08:22:33;3.70;;;2.00;;
8260;SDS011;64115;50.170;8.242;2023-02-26T08:25:00;2.83;;;1.70;;
8260;SDS011;64115;50.170;8.242;2023-02-26T08:27:27;3.57;;;2.00;;
8260;SDS011;64115;50.170;8.242;2023-02-26T08:29:54;1.67;;;1.57;;
8260;SDS011;64115;50.170;8.242;2023-02-26T08:32:21;4.07;;;1.67;;
8260;SDS011;64115;50.170;8.242;2023-02-26T08:34:48;2.87;;;1.53;;
8260;SDS011;64115;50.170;8.242;2023-02-26T08:37:16;2.60;;;1.27;;
8260;SDS011;64115;50.170;8.242;2023-02-26T08:39:46;1.93;;;1.60;;
8260;SDS011;64115;50.170;8.242;2023-02-26T08:42:13;2.60;;;1.40;;
8260;SDS011;64115;50.170;8.242;2023-02-26T08:44:41;8.23;;;1.57;;
8260;SDS011;64115;50.170;8.242;2023-02-26T08:47:08;3.10;;;0.90;;
8260;SDS011;64115;50.170;8.242;2023-02-26T08:49:35;1.53;;;1.20;;
8260;SDS011;64115;50.170;8.242;2023-02-26T08:52:02;1.77;;;1.60;;
8260;SDS011;64115;50.170;8.242;2023-02-26T08:54:31;1.87;;;1.50;;
8260;SDS011;64115;50.170;8.242;2023-02-26T08:56:58;1.13;;;0.97;;
8260;SDS011;64115;50.170;8.242;2023-02-26T08:59:25;1.73;;;1.50;;
8260;SDS011;64115;50.170;8.242;2023-02-26T09:01:52;1.20;;;1.10;;
8260;SDS011;64115;50.170;8.242;2023-02-26T09:04:19;1.87;;;1.07;;
8260;SDS011;64115;50.170;8.242;2023-02-26T09:06:46;2.33;;;1.47;;
8260;SDS011;64115;50.170;8.242;2023-02-26T09:09:14;1.20;;;1.10;;
8260;SDS011;64115;50.170;8.242;2023-02-26T09:11:44;1.10;;;1.10;;
8260;SDS011;64115;50.170;8.242;2023-02-26T09:14:12;1.30;;;1.10;;
8260;SDS011;64115;50.170;8.242;2023-02-26T09:16:39;0.77;;;0.73;;
8260;SDS011;64115;50.170;8.242;2023-02-26T09:19:06;1.10;;;1.10;;
8260;SDS011;64115;50.170;8.242;2023-02-26T09:21:33;1.37;;;1.10;;
8260;SDS011;64115;50.170;8.242;2023-02-26T09:24:00;1.00;;;1.00;;
8260;SDS011;64115;50.170;8.242;2023-02-26T09:26:27;0.67;;;0.67;;
8260;SDS011;64115;50.170;8.242;2023-02-26T09:28:56;1.30;;;0.97;;
8260;SDS011;64115;50.170;8.242;2023-02-26T09:31:23;0.53;;;0.53;;
8260;SDS011;64115;50.170;8.242;2023-02-26T09:33:50;0.53;;;0.53;;
8260;SDS011;64115;50.170;8.242;2023-02-26T09:36:16;0.77;;;0.77;;
8260;SDS011;64115;50.170;8.242;2023-02-26T09:38:43;2.73;;;1.27;;
8260;SDS011;64115;50.170;8.242;2023-02-26T09:41:14;0.83;;;0.83;;
8260;SDS011;64115;50.170;8.242;2023-02-26T09:43:48;1.37;;;0.90;;
8260;SDS011;64115;50.170;8.242;2023-02-26T09:46:43;1.67;;;1.00;;
8260;SDS011;64115;50.170;8.242;2023-02-26T09:49:21;2.10;;;1.30;;
8260;SDS011;64115;50.170;8.242;2023-02-26T09:52:01;2.13;;;1.20;;
8260;SDS011;64115;50.170;8.242;2023-02-26T09:54:39;1.10;;;1.00;;
8260;SDS011;64115;50.170;8.242;2023-02-26T09:57:10;1.47;;;1.37;;
8260;SDS011;64115;50.170;8.242;2023-02-26T09:59:46;1.30;;;1.20;;
8260;SDS011;64115;50.170;8.242;2023-02-26T10:02:16;1.93;;;1.30;;
8260;SDS011;64115;50.170;8.242;2023-02-26T10:04:48;1.60;;;1.07;;
8260;SDS011;64115;50.170;8.242;2023-02-26T10:07:23;0.90;;;0.80;;
8260;SDS011;64115;50.170;8.242;2023-02-26T10:10:00;1.63;;;1.10;;
8260;SDS011;64115;50.170;8.242;2023-02-26T10:12:35;0.90;;;0.90;;
8260;SDS011;64115;50.170;8.242;2023-02-26T10:15:07;1.57;;;1.47;;
8260;SDS011;64115;50.170;8.242;2023-02-26T10:17:44;1.13;;;1.00;;
8260;SDS011;64115;50.170;8.242;2023-02-26T10:20:20;1.60;;;1.10;;
8260;SDS011;64115;50.170;8.242;2023-02-26T10:22:54;1.10;;;1.07;;
8260;SDS011;64115;50.170;8.242;2023-02-26T10:25:25;1.77;;;0.90;;
8260;SDS011;64115;50.170;8.242;2023-02-26T10:28:00;1.67;;;1.33;;
8260;SDS011;64115;50.170;8.242;2023-02-26T10:30:35;1.00;;;0.90;;
8260;SDS011;64115;50.170;8.242;2023-02-26T10:33:11;0.80;;;0.80;;
8260;SDS011;64115;50.170;8.242;2023-02-26T10:35:46;1.33;;;0.80;;
8260;SDS011;64115;50.170;8.242;2023-02-26T10:38:19;1.23;;;0.80;;
8260;SDS011;64115;50.170;8.242;2023-02-26T10:40:50;1.47;;;0.83;;
8260;SDS011;64115;50.170;8.242;2023-02-26T10:43:23;3.60;;;0.90;;
8260;SDS011;64115;50.170;8.242;2023-02-26T10:45:59;1.23;;;0.87;;
8260;SDS011;64115;50.170;8.242;2023-02-26T10:48:44;1.50;;;0.93;;
8260;SDS011;64115;50.170;8.242;2023-02-26T10:51:31;2.43;;;0.93;;
8260;SDS011;64115;50.170;8.242;2023-02-26T10:54:03;1.17;;;0.77;;
8260;SDS011;64115;50.170;8.242;2023-02-26T10:56:38;0.50;;;0.50;;
8260;SDS011;64115;50.170;8.242;2023-02-26T10:59:05;0.57;;;0.50;;
8260;SDS011;64115;50.170;8.242;2023-02-26T11:01:33;1.13;;;0.77;;
8260;SDS011;64115;50.170;8.242;2023-02-26T11:04:03;2.07;;;0.80;;
8260;SDS011;64115;50.170;8.242;2023-02-26T11:06:33;1.00;;;0.80;;
8260;SDS011;64115;50.170;8.242;2023-02-26T11:09:04;1.77;;;0.70;;
8260;SDS011;64115;50.170;8.242;2023-02-26T11:11:41;0.80;;;0.70;;
8260;SDS011;64115;50.170;8.242;2023-02-26T11:14:11;1.63;;;1.00;;
8260;SDS011;64115;50.170;8.242;2023-02-26T11:16:45;0.73;;;0.73;;
8260;SDS011;64115;50.170;8.242;2023-02-26T11:19:16;0.73;;;0.70;;
8260;SDS011;64115;50.170;8.242;2023-02-26T11:21:48;0.90;;;0.90;;
8260;SDS011;64115;50.170;8.242;2023-02-26T11:24:18;0.67;;;0.67;;
8260;SDS011;64115;50.170;8.242;2023-02-26T11:26:51;0.73;;;0.70;;
8260;SDS011;64115;50.170;8.242;2023-02-26T11:29:21;0.97;;;0.97;;
8260;SDS011;64115;50.170;8.242;2023-02-26T11:31:50;1.90;;;1.00;;
8260;SDS011;64115;50.170;8.242;2023-02-26T11:34:22;0.70;;;0.60;;
8260;SDS011;64115;50.170;8.242;2023-02-26T11:36:50;0.73;;;0.70;;
8260;SDS011;64115;50.170;8.242;2023-02-26T11:39:20;1.13;;;0.80;;
8260;SDS011;64115;50.170;8.242;2023-02-26T11:41:49;1.10;;;0.73;;
8260;SDS011;64115;50.170;8.242;2023-02-26T11:44:19;0.57;;;0.57;;
8260;SDS011;64115;50.170;8.242;2023-02-26T11:46:50;0.97;;;0.53;;
8260;SDS011;64115;50.170;8.242;2023-02-26T11:49:23;0.80;;;0.80;;
8260;SDS011;64115;50.170;8.242;2023-02-26T11:52:02;0.60;;;0.60;;
8260;SDS011;64115;50.170;8.242;2023-02-26T11:54:42;0.70;;;0.63;;
8260;SDS011;64115;50.170;8.242;2023-02-26T11:57:14;0.60;;;0.60;;
8260;SDS011;64115;50.170;8.242;2023-02-26T11:59:44;1.03;;;0.80;;
8260;SDS011;64115;50.170;8.242;2023-02-26T12:02:14;0.63;;;0.50;;
8260;SDS011;64115;50.170;8.242;2023-02-26T12:04:46;0.53;;;0.50;;
8260;SDS011;64115;50.170;8.242;2023-02-26T12:07:16;0.33;;;0.33;;
8260;SDS011;64115;50.170;8.242;2023-02-26T12:09:45;0.93;;;0.83;;
8260;SDS011;64115;50.170;8.242;2023-02-26T12:15:20;0.53;;;0.53;;
8260;SDS011;64115;50.170;8.242;2023-02-26T12:17:58;0.37;;;0.37;;
8260;SDS011;64115;50.170;8.242;2023-02-26T12:20:39;1.40;;;0.63;;
8260;SDS011;64115;50.170;8.242;2023-02-26T12:23:16;0.90;;;0.70;;
8260;SDS011;64115;50.170;8.242;2023-02-26T12:25:58;1.00;;;0.50;;
8260;SDS011;64115;50.170;8.242;2023-02-26T12:31:56;0.67;;;0.50;;
8260;SDS011;64115;50.170;8.242;2023-02-26T12:37:50;0.70;;;0.70;;
8260;SDS011;64115;50.170;8.242;2023-02-26T12:40:35;0.50;;;0.50;;
8260;SDS011;64115;50.170;8.242;2023-02-26T12:43:14;0.60;;;0.60;;
8260;SDS011;64115;50.170;8.242;2023-02-26T12:45:51;0.53;;;0.53;;
8260;SDS011;64115;50.170;8.242;2023-02-26T12:48:44;0.70;;;0.70;;
8260;SDS011;64115;50.170;8.242;2023-02-26T12:51:27;1.30;;;0.70;;
8260;SDS011;64115;50.170;8.242;2023-02-26T12:54:23;1.37;;;0.73;;
8260;SDS011;64115;50.170;8.242;2023-02-26T12:57:09;0.77;;;0.70;;
8260;SDS011;64115;50.170;8.242;2023-02-26T12:59:52;0.60;;;0.60;;
8260;SDS011;64115;50.170;8.242;2023-02-26T13:02:49;0.50;;;0.50;;
8260;SDS011;64115;50.170;8.242;2023-02-26T13:05:37;0.77;;;0.70;;
8260;SDS011;64115;50.170;8.242;2023-02-26T13:08:19;1.27;;;0.70;;
8260;SDS011;64115;50.170;8.242;2023-02-26T13:10:56;0.50;;;0.50;;
8260;SDS011;64115;50.170;8.242;2023-02-26T13:13:36;2.20;;;0.70;;
8260;SDS011;64115;50.170;8.242;2023-02-26T13:16:24;0.33;;;0.33;;
8260;SDS011;64115;50.170;8.242;2023-02-26T13:19:02;0.70;;;0.67;;
8260;SDS011;64115;50.170;8.242;2023-02-26T13:21:38;0.57;;;0.50;;
8260;SDS011;64115;50.170;8.242;2023-02-26T13:24:10;0.90;;;0.70;;
8260;SDS011;64115;50.170;8.242;2023-02-26T13:26:42;0.70;;;0.70;;
8260;SDS011;64115;50.170;8.242;2023-02-26T13:29:13;1.13;;;0.70;;
8260;SDS011;64115;50.170;8.242;2023-02-26T13:31:44;1.17;;;0.80;;
8260;SDS011;64115;50.170;8.242;2023-02-26T13:34:18;1.77;;;0.90;;
8260;SDS011;64115;50.170;8.242;2023-02-26T13:36:48;1.70;;;0.47;;
8260;SDS011;64115;50.170;8.242;2023-02-26T13:39:22;2.67;;;0.57;;
8260;SDS011;64115;50.170;8.242;2023-02-26T13:42:05;0.80;;;0.80;;
8260;SDS011;64115;50.170;8.242;2023-02-26T13:44:47;1.83;;;0.83;;
8260;SDS011;64115;50.170;8.242;2023-02-26T13:47:30;0.70;;;0.70;;
8260;SDS011;64115;50.170;8.242;2023-02-26T13:50:14;0.80;;;0.80;;
8260;SDS011;64115;50.170;8.242;2023-02-26T13:52:53;1.17;;;1.07;;
8260;SDS011;64115;50.170;8.242;2023-02-26T13:58:32;0.70;;;0.70;;
8260;SDS011;64115;50.170;8.242;2023-02-26T14:01:05;0.93;;;0.73;;
8260;SDS011;64115;50.170;8.242;2023-02-26T14:03:34;1.17;;;0.67;;
8260;SDS011;64115;50.170;8.242;2023-02-26T14:06:06;0.77;;;0.70;;
8260;SDS011;64115;50.170;8.242;2023-02-26T14:09:05;1.10;;;1.00;;
8260;SDS011;64115;50.170;8.242;2023-02-26T14:11:56;1.97;;;1.23;;
8260;SDS011;64115;50.170;8.242;2023-02-26T14:14:32;1.77;;;0.97;;
8260;SDS011;64115;50.170;8.242;2023-02-26T14:17:18;0.80;;;0.80;;
8260;SDS011;64115;50.170;8.242;2023-02-26T14:23:09;1.37;;;0.70;;
8260;SDS011;64115;50.170;8.242;2023-02-26T14:25:39;0.63;;;0.63;;
8260;SDS011;64115;50.170;8.242;2023-02-26T14:31:19;0.80;;;0.80;;
8260;SDS011;64115;50.170;8.242;2023-02-26T14:33:57;0.50;;;0.50;;
8260;SDS011;64115;50.170;8.242;2023-02-26T14:36:33;1.47;;;0.80;;
8260;SDS011;64115;50.170;8.242;2023-02-26T14:39:05;0.40;;;0.40;;
8260;SDS011;64115;50.170;8.242;2023-02-26T14:41:36;0.87;;;0.50;;
8260;SDS011;64115;50.170;8.242;2023-02-26T14:44:06;0.47;;;0.47;;
8260;SDS011;64115;50.170;8.242;2023-02-26T14:46:41;0.60;;;0.60;;
8260;SDS011;64115;50.170;8.242;2023-02-26T14:49:12;0.60;;;0.40;;
8260;SDS011;64115;50.170;8.242;2023-02-26T14:51:46;0.80;;;0.60;;
8260;SDS011;64115;50.170;8.242;2023-02-26T14:54:31;0.70;;;0.70;;
8260;SDS011;64115;50.170;8.242;2023-02-26T14:57:10;0.87;;;0.60;;
8260;SDS011;64115;50.170;8.242;2023-02-26T14:59:57;0.60;;;0.60;;
8260;SDS011;64115;50.170;8.242;2023-02-26T15:02:48;0.13;;;0.13;;
8260;SDS011;64115;50.170;8.242;2023-02-26T15:05:38;0.77;;;0.60;;
8260;SDS011;64115;50.170;8.242;2023-02-26T15:08:19;0.40;;;0.30;;
8260;SDS011;64115;50.170;8.242;2023-02-26T15:11:04;1.20;;;0.47;;
8260;SDS011;64115;50.170;8.242;2023-02-26T15:13:45;2.47;;;0.60;;
8260;SDS011;64115;50.170;8.242;2023-02-26T15:16:38;0.43;;;0.43;;
8260;SDS011;64115;50.170;8.242;2023-02-26T15:19:27;0.50;;;0.50;;
8260;SDS011;64115;50.170;8.242;2023-02-26T15:22:08;1.23;;;0.60;;
8260;SDS011;64115;50.170;8.242;2023-02-26T15:24:50;1.03;;;0.70;;
8260;SDS011;64115;50.170;8.242;2023-02-26T15:27:18;0.70;;;0.70;;
8260;SDS011;64115;50.170;8.242;2023-02-26T15:29:46;0.43;;;0.43;;
8260;SDS011;64115;50.170;8.242;2023-02-26T15:32:20;0.57;;;0.53;;
8260;SDS011;64115;50.170;8.242;2023-02-26T15:34:56;0.70;;;0.70;;
8260;SDS011;64115;50.170;8.242;2023-02-26T15:37:26;0.77;;;0.60;;
8260;SDS011;64115;50.170;8.242;2023-02-26T15:39:58;2.83;;;0.90;;
8260;SDS011;64115;50.170;8.242;2023-02-26T15:42:29;0.30;;;0.20;;
8260;SDS011;64115;50.170;8.242;2023-02-26T15:45:03;0.93;;;0.60;;
8260;SDS011;64115;50.170;8.242;2023-02-26T15:47:33;0.40;;;0.40;;
8260;SDS011;64115;50.170;8.242;2023-02-26T15:50:02;1.60;;;0.80;;